Terminal Aerodrome Forecast
Issued by NWS

Home | Current Version | Previous Version | Text Only | Print | Product List | Glossary On
Versions: 1 2 3 4 5 6 7 8 9 10 11 12 13 14 15 16
000
FTUS43 KDVN 230520
TAFCID
TAF
KCID 230520Z 2306/2406 20003KT P6SM SKC
      TEMPO 2306/2309 5SM BR
     FM230900 15002KT 5SM BR SCT250
     FM231500 17006KT P6SM VCTS SCT030CB BKN070=

USA.gov is the U.S. government's official web portal to all federal, state and local government web resources and services.